createdAt,value
2023-08-02T00:01:11.794Z,10.25
2023-08-02T00:03:38.876Z,15.20
2023-08-02T00:06:05.922Z,12.35
2023-08-02T00:08:33.703Z,14.07
2023-08-02T00:11:00.615Z,11.98
2023-08-02T00:13:27.545Z,13.65
2023-08-02T00:15:54.573Z,10.60
2023-08-02T00:18:21.609Z,6.82
2023-08-02T00:20:49.652Z,10.93
2023-08-02T00:23:16.649Z,9.65
2023-08-02T00:25:43.623Z,8.57
2023-08-02T00:28:10.620Z,10.83
2023-08-02T00:30:48.315Z,9.88
2023-08-02T00:33:16.031Z,11.27
2023-08-02T00:35:46.942Z,11.43
2023-08-02T00:38:15.038Z,11.23
2023-08-02T00:40:42.565Z,10.43
2023-08-02T00:43:09.629Z,10.48
2023-08-02T00:45:37.693Z,11.55
2023-08-02T00:48:05.247Z,18.00
2023-08-02T00:50:34.537Z,8.23
2023-08-02T00:53:01.614Z,15.43
2023-08-02T00:55:28.978Z,10.20
2023-08-02T00:57:55.956Z,11.35
2023-08-02T01:00:23.022Z,12.93
2023-08-02T01:02:50.839Z,10.63
2023-08-02T01:05:21.745Z,10.53
2023-08-02T01:07:59.246Z,14.63
2023-08-02T01:10:33.044Z,13.27
2023-08-02T01:13:04.036Z,12.77
2023-08-02T01:15:32.118Z,10.52
2023-08-02T01:18:00.017Z,9.80
2023-08-02T01:20:27.184Z,17.05
2023-08-02T01:22:54.247Z,12.05
2023-08-02T01:25:21.711Z,12.90
2023-08-02T01:28:01.468Z,12.65
2023-08-02T01:30:37.132Z,11.87
2023-08-02T01:33:05.621Z,10.38
2023-08-02T01:35:33.742Z,13.00
2023-08-02T01:38:01.129Z,9.98
2023-08-02T01:40:28.049Z,13.55
2023-08-02T01:42:54.938Z,10.90
2023-08-02T01:45:22.710Z,13.25
2023-08-02T01:47:50.182Z,14.50
2023-08-02T01:50:17.127Z,12.13
2023-08-02T01:52:44.012Z,13.05
2023-08-02T01:55:11.037Z,11.93
2023-08-02T01:57:38.002Z,10.55
2023-08-02T02:00:06.112Z,9.45
2023-08-02T02:02:39.625Z,11.25
2023-08-02T02:05:07.376Z,11.80
2023-08-02T02:07:34.318Z,13.17
2023-08-02T02:10:01.765Z,11.32
2023-08-02T02:12:28.684Z,11.45
2023-08-02T02:14:55.568Z,9.43
2023-08-02T02:17:23.837Z,10.00
2023-08-02T02:19:50.785Z,16.37
2023-08-02T02:22:17.699Z,10.82
2023-08-02T02:24:46.403Z,10.65
2023-08-02T02:27:13.365Z,8.93
2023-08-02T02:29:41.036Z,14.82
2023-08-02T02:32:08.042Z,12.23
2023-08-02T02:34:34.998Z,10.50
2023-08-02T02:37:02.040Z,11.23
2023-08-02T02:39:28.932Z,12.88
2023-08-02T02:41:56.075Z,9.07
2023-08-02T02:44:23.155Z,16.10
2023-08-02T02:46:50.109Z,12.82
2023-08-02T02:49:17.052Z,12.93
2023-08-02T02:51:44.094Z,11.80
2023-08-02T02:54:12.195Z,10.93
2023-08-02T02:56:39.260Z,8.63
2023-08-02T02:59:06.241Z,11.32
2023-08-02T03:01:33.148Z,8.70
2023-08-02T03:04:00.046Z,12.90
2023-08-02T03:06:26.993Z,13.15
2023-08-02T03:08:53.933Z,11.87
2023-08-02T03:11:20.870Z,15.88
2023-08-02T03:13:47.802Z,16.05
2023-08-02T03:16:14.645Z,9.80
2023-08-02T03:18:41.464Z,12.68
2023-08-02T03:21:08.405Z,10.67
2023-08-02T03:23:36.280Z,9.60
2023-08-02T03:26:03.261Z,11.57
2023-08-02T03:28:30.291Z,10.00
2023-08-02T03:30:57.385Z,9.90
2023-08-02T03:33:24.315Z,9.33
2023-08-02T03:35:51.269Z,12.25
2023-08-02T03:38:18.375Z,10.63
2023-08-02T03:40:45.326Z,11.80
2023-08-02T03:43:12.374Z,8.90
2023-08-02T03:45:39.302Z,9.70
2023-08-02T03:48:06.489Z,12.13
2023-08-02T03:50:35.337Z,6.80
2023-08-02T03:53:02.279Z,12.05
2023-08-02T03:55:29.202Z,8.80
2023-08-02T03:57:56.208Z,10.70
2023-08-02T04:00:23.123Z,9.57
2023-08-02T04:02:50.202Z,11.30
2023-08-02T04:05:17.271Z,9.68
2023-08-02T04:07:44.700Z,11.48
2023-08-02T04:10:11.711Z,10.63
2023-08-02T04:12:38.780Z,11.57
2023-08-02T04:15:06.246Z,10.80
2023-08-02T04:17:33.215Z,10.63
2023-08-02T04:20:01.476Z,10.32
2023-08-02T04:22:31.554Z,9.77
2023-08-02T04:24:58.606Z,10.05
2023-08-02T04:27:25.523Z,9.60
2023-08-02T04:29:52.386Z,8.63
2023-08-02T04:32:19.294Z,12.88
2023-08-02T04:34:46.521Z,10.50
2023-08-02T04:37:13.510Z,9.32
2023-08-02T04:39:40.546Z,9.43
2023-08-02T04:42:07.475Z,8.05
2023-08-02T04:44:34.322Z,10.60
2023-08-02T04:47:01.400Z,8.87
2023-08-02T04:49:28.369Z,8.55
2023-08-02T04:51:55.335Z,9.18
2023-08-02T04:54:22.289Z,10.27
2023-08-02T04:56:49.247Z,8.98
2023-08-02T04:59:16.263Z,7.63
2023-08-02T05:01:43.735Z,8.68
2023-08-02T05:04:11.105Z,10.40
2023-08-02T05:06:38.113Z,8.93
2023-08-02T05:09:06.064Z,7.82
2023-08-02T05:11:33.129Z,8.03
2023-08-02T05:14:00.066Z,9.93
2023-08-02T05:16:28.356Z,10.43
2023-08-02T05:18:55.552Z,9.60
2023-08-02T05:21:24.395Z,8.02
2023-08-02T05:23:52.330Z,8.87
2023-08-02T05:26:21.265Z,9.93
2023-08-02T05:28:48.196Z,8.30
2023-08-02T05:31:16.917Z,7.95
2023-08-02T05:33:44.799Z,7.78
2023-08-02T05:36:16.221Z,9.30
2023-08-02T05:38:43.522Z,8.00
2023-08-02T05:41:10.557Z,9.45
2023-08-02T05:43:37.505Z,10.48
2023-08-02T05:46:04.845Z,8.50
2023-08-02T05:48:31.838Z,8.93
2023-08-02T05:50:58.769Z,8.07
2023-08-02T05:53:25.845Z,11.40
2023-08-02T05:55:52.900Z,9.00
2023-08-02T05:58:19.866Z,9.20
2023-08-02T06:00:47.008Z,10.70
2023-08-02T06:03:14.069Z,12.75
2023-08-02T06:05:41.109Z,8.55
2023-08-02T06:08:08.263Z,10.27
2023-08-02T06:10:35.583Z,8.20
2023-08-02T06:13:02.479Z,7.67
2023-08-02T06:15:30.343Z,9.32
2023-08-02T06:17:57.470Z,8.65
2023-08-02T06:20:24.379Z,8.38
2023-08-02T06:22:51.343Z,10.13
2023-08-02T06:25:18.498Z,8.13
2023-08-02T06:27:45.524Z,19.75
2023-08-02T06:30:12.618Z,9.98
2023-08-02T06:32:39.642Z,8.25
2023-08-02T06:35:07.186Z,11.68
2023-08-02T06:37:34.291Z,7.53
2023-08-02T06:40:01.356Z,6.53
2023-08-02T06:42:28.410Z,6.88
2023-08-02T06:44:55.718Z,9.23
2023-08-02T06:47:22.857Z,10.55
2023-08-02T06:49:50.037Z,7.47
2023-08-02T06:52:18.241Z,6.80
2023-08-02T06:54:45.356Z,8.35
2023-08-02T06:57:12.731Z,5.97
2023-08-02T06:59:39.883Z,8.30
2023-08-02T07:02:08.578Z,6.73
2023-08-02T07:04:35.619Z,6.20
2023-08-02T07:07:02.752Z,6.03
2023-08-02T07:09:31.290Z,7.57
2023-08-02T07:11:58.432Z,7.65
2023-08-02T07:14:25.565Z,6.33
2023-08-02T07:16:52.599Z,6.72
2023-08-02T07:19:19.712Z,6.07
2023-08-02T07:21:47.000Z,7.07
2023-08-02T07:24:14.192Z,7.07
2023-08-02T07:26:41.198Z,6.00
2023-08-02T07:29:08.421Z,5.18
2023-08-02T07:31:36.530Z,6.40
2023-08-02T07:34:03.600Z,7.15
2023-08-02T07:36:30.814Z,6.18
2023-08-02T07:38:57.885Z,4.90
2023-08-02T07:41:24.975Z,5.45
2023-08-02T07:43:52.072Z,5.70
2023-08-02T07:46:23.792Z,4.53
2023-08-02T07:48:52.720Z,4.43
2023-08-02T07:51:20.249Z,4.50
2023-08-02T07:53:47.860Z,3.78
2023-08-02T07:56:14.916Z,4.70
2023-08-02T07:58:42.070Z,2.95
2023-08-02T08:01:10.552Z,4.15
2023-08-02T08:03:38.664Z,4.00
2023-08-02T08:06:16.766Z,3.20
2023-08-02T08:08:44.461Z,3.15
2023-08-02T08:11:11.834Z,2.55
2023-08-02T08:13:39.005Z,2.40
2023-08-02T08:16:06.207Z,2.63
2023-08-02T08:18:34.139Z,2.72
2023-08-02T08:21:06.046Z,3.08
2023-08-02T08:23:34.139Z,3.38
2023-08-02T08:26:01.247Z,2.05
2023-08-02T08:28:28.481Z,2.43
2023-08-02T08:31:02.611Z,2.33
2023-08-02T08:33:30.935Z,3.67
2023-08-02T08:35:58.264Z,2.63
2023-08-02T08:38:25.656Z,2.65
2023-08-02T08:40:54.126Z,2.87
2023-08-02T08:43:25.721Z,2.45
2023-08-02T08:45:54.020Z,2.63
2023-08-02T08:48:22.917Z,3.33
2023-08-02T08:50:51.864Z,3.55
2023-08-02T08:53:29.221Z,2.47
2023-08-02T08:55:56.996Z,3.20
2023-08-02T08:58:25.437Z,3.58
2023-08-02T09:00:55.405Z,3.38
2023-08-02T09:03:22.768Z,2.88
2023-08-02T09:05:51.032Z,5.03
2023-08-02T09:08:18.602Z,3.72
2023-08-02T09:10:45.714Z,5.32
2023-08-02T09:13:29.247Z,5.93
2023-08-02T09:16:05.136Z,4.50
2023-08-02T09:18:43.213Z,4.03
2023-08-02T09:21:16.484Z,2.83
2023-08-02T09:23:48.254Z,3.65
2023-08-02T09:26:19.994Z,4.55
2023-08-02T09:29:01.505Z,3.35
2023-08-02T09:31:30.101Z,3.20
2023-08-02T09:33:58.411Z,6.38
2023-08-02T09:36:31.083Z,3.20
2023-08-02T09:39:05.586Z,3.20
2023-08-02T09:41:52.485Z,3.15
2023-08-02T09:44:22.622Z,3.10
2023-08-02T09:46:49.908Z,3.17
2023-08-02T09:49:22.265Z,4.35
2023-08-02T09:51:49.475Z,2.85
2023-08-02T09:54:17.188Z,4.03
2023-08-02T09:56:44.840Z,4.27
2023-08-02T09:59:12.780Z,3.38
2023-08-02T10:01:40.649Z,3.95
2023-08-02T10:04:09.786Z,4.25
2023-08-02T10:06:51.588Z,4.18
2023-08-02T10:09:24.795Z,3.73
2023-08-02T10:11:52.026Z,3.88
2023-08-02T10:14:21.092Z,5.30
2023-08-02T10:16:48.155Z,4.35
2023-08-02T10:19:15.973Z,4.57
2023-08-02T10:21:44.520Z,3.27
2023-08-02T10:24:13.919Z,4.03
2023-08-02T10:26:42.431Z,4.13
2023-08-02T10:29:10.273Z,3.35
2023-08-02T10:31:37.606Z,3.55
2023-08-02T10:34:36.479Z,3.07
2023-08-02T10:37:04.668Z,3.78
2023-08-02T10:39:47.119Z,3.40
2023-08-02T10:42:18.963Z,2.92
2023-08-02T10:45:00.695Z,2.75
2023-08-02T10:47:35.395Z,2.93
2023-08-02T10:50:04.341Z,4.07
2023-08-02T10:52:40.052Z,4.97
2023-08-02T10:55:09.209Z,6.03
2023-08-02T10:57:37.130Z,4.10
2023-08-02T11:00:27.060Z,4.17
2023-08-02T11:02:54.752Z,6.10
2023-08-02T11:05:43.901Z,5.03
2023-08-02T11:08:12.287Z,3.53
2023-08-02T11:10:51.896Z,2.42
2023-08-02T11:13:19.659Z,6.33
2023-08-02T11:15:48.200Z,7.85
2023-08-02T11:18:30.744Z,4.15
2023-08-02T11:21:11.447Z,4.47
2023-08-02T11:23:39.485Z,5.80
2023-08-02T11:26:25.597Z,7.60
2023-08-02T11:28:54.057Z,8.38
2023-08-02T11:31:28.794Z,5.78
2023-08-02T11:33:55.972Z,5.57
2023-08-02T11:36:24.253Z,5.63
2023-08-02T11:38:51.412Z,6.33
2023-08-02T11:41:23.199Z,5.03
2023-08-02T11:43:50.906Z,5.93
2023-08-02T11:46:25.047Z,4.47
2023-08-02T11:48:52.335Z,5.75
2023-08-02T11:51:21.740Z,3.77
2023-08-02T11:53:48.680Z,5.68
2023-08-02T11:56:15.984Z,5.20
2023-08-02T11:58:44.234Z,6.00
2023-08-02T12:01:12.127Z,4.28
2023-08-02T12:03:39.341Z,4.20
2023-08-02T12:06:06.343Z,4.10
2023-08-02T12:08:33.518Z,6.47
2023-08-02T12:11:00.702Z,3.70
2023-08-02T12:13:27.599Z,3.03
2023-08-02T12:16:01.280Z,3.97
2023-08-02T12:18:28.823Z,2.92
2023-08-02T12:20:56.020Z,3.50
2023-08-02T12:23:32.091Z,3.85
2023-08-02T12:25:59.213Z,3.35
2023-08-02T12:28:26.323Z,3.37
2023-08-02T12:31:02.668Z,2.55
2023-08-02T12:33:30.078Z,3.72
2023-08-02T12:35:57.150Z,5.35
2023-08-02T12:38:30.156Z,4.32
2023-08-02T12:40:58.744Z,4.67
2023-08-02T12:43:26.873Z,3.78
2023-08-02T12:45:59.284Z,3.80
2023-08-02T12:48:26.752Z,3.35
2023-08-02T12:50:54.346Z,3.28
2023-08-02T12:53:21.678Z,3.67
2023-08-02T12:55:49.162Z,2.40
2023-08-02T12:58:16.774Z,2.58
2023-08-02T13:00:44.443Z,4.35
2023-08-02T13:03:12.242Z,5.10
2023-08-02T13:05:39.939Z,3.10
2023-08-02T13:08:11.606Z,6.85
2023-08-02T13:10:38.834Z,3.88
2023-08-02T13:13:05.909Z,3.20
2023-08-02T13:15:33.063Z,2.90
2023-08-02T13:18:00.468Z,3.77
2023-08-02T13:20:28.912Z,3.72
2023-08-02T13:22:56.635Z,2.42
2023-08-02T13:25:23.861Z,2.28
2023-08-02T13:27:51.011Z,2.67
2023-08-02T13:30:18.364Z,2.87
2023-08-02T13:32:45.682Z,1.95
2023-08-02T13:35:12.946Z,2.70
2023-08-02T13:37:41.444Z,4.03
2023-08-02T13:40:08.836Z,3.60
2023-08-02T13:42:36.964Z,4.70
2023-08-02T13:45:04.715Z,3.42
2023-08-02T13:47:31.907Z,3.53
2023-08-02T13:49:59.171Z,6.00
2023-08-02T13:52:26.356Z,6.32
2023-08-02T13:54:53.529Z,5.50
2023-08-02T13:57:20.622Z,6.35
2023-08-02T13:59:47.709Z,7.50
2023-08-02T14:02:14.754Z,6.40
2023-08-02T14:04:43.851Z,8.52
2023-08-02T14:07:12.499Z,6.27
2023-08-02T14:09:42.057Z,5.25
2023-08-02T14:12:16.650Z,6.18
2023-08-02T14:14:44.409Z,6.90
2023-08-02T14:17:11.557Z,4.97
2023-08-02T14:19:38.591Z,5.00
2023-08-02T14:22:06.187Z,9.15
2023-08-02T14:24:33.653Z,5.78
2023-08-02T14:27:00.640Z,6.15
2023-08-02T14:29:27.571Z,7.70
2023-08-02T14:31:54.601Z,8.37
2023-08-02T14:34:25.109Z,6.88
2023-08-02T14:36:52.463Z,6.28
2023-08-02T14:39:19.558Z,7.63
2023-08-02T14:41:46.506Z,8.25
2023-08-02T14:44:13.584Z,7.37
2023-08-02T14:46:42.087Z,6.38
2023-08-02T14:49:09.994Z,6.13
2023-08-02T14:51:37.079Z,6.22
2023-08-02T14:54:13.255Z,7.82
2023-08-02T14:56:42.084Z,7.33
2023-08-02T14:59:09.848Z,5.85
2023-08-02T15:01:36.952Z,8.10
2023-08-02T15:04:04.239Z,7.95
2023-08-02T15:06:31.253Z,6.22
2023-08-02T15:08:58.283Z,7.87
2023-08-02T15:11:25.398Z,8.73
2023-08-02T15:13:52.494Z,10.73
2023-08-02T15:16:19.636Z,9.90
2023-08-02T15:18:46.758Z,7.60
2023-08-02T15:21:13.800Z,3.90
2023-08-02T15:23:40.779Z,8.48
2023-08-02T15:26:09.002Z,10.57
2023-08-02T15:28:35.971Z,9.48
2023-08-02T15:31:03.039Z,5.97
2023-08-02T15:33:30.135Z,8.30
2023-08-02T15:35:58.524Z,8.50
2023-08-02T15:38:26.204Z,7.15
2023-08-02T15:40:56.396Z,8.90
2023-08-02T15:43:23.553Z,8.38
2023-08-02T15:45:50.689Z,7.13
2023-08-02T15:48:17.669Z,11.07
2023-08-02T15:50:44.734Z,8.45
2023-08-02T15:53:11.758Z,8.80
2023-08-02T15:55:39.331Z,8.93
2023-08-02T15:58:06.501Z,11.83
2023-08-02T16:00:36.104Z,7.82
2023-08-02T16:03:04.828Z,6.47
2023-08-02T16:05:31.876Z,6.95
2023-08-02T16:07:59.316Z,9.25
2023-08-02T16:10:26.694Z,6.80
2023-08-02T16:12:55.274Z,8.95
2023-08-02T16:15:22.495Z,8.35
2023-08-02T16:17:49.628Z,9.88
2023-08-02T16:20:16.733Z,12.63
2023-08-02T16:22:44.078Z,5.90
2023-08-02T16:25:11.201Z,9.00
2023-08-02T16:27:38.464Z,8.65
2023-08-02T16:30:06.123Z,11.27
2023-08-02T16:32:33.161Z,9.95
2023-08-02T16:35:00.214Z,10.87
2023-08-02T16:37:27.128Z,9.95
2023-08-02T16:39:54.185Z,8.40
2023-08-02T16:42:21.199Z,7.03
2023-08-02T16:44:48.288Z,8.15
2023-08-02T16:47:15.430Z,9.13
2023-08-02T16:49:42.415Z,11.52
2023-08-02T16:52:09.532Z,7.05
2023-08-02T16:54:36.493Z,7.43
2023-08-02T16:57:03.686Z,9.88
2023-08-02T16:59:30.755Z,9.83
2023-08-02T17:01:57.734Z,6.07
2023-08-02T17:04:24.864Z,7.13
2023-08-02T17:06:51.927Z,8.05
2023-08-02T17:09:18.902Z,7.13
2023-08-02T17:11:45.856Z,7.67
2023-08-02T17:14:12.769Z,4.95
2023-08-02T17:16:39.830Z,10.07
2023-08-02T17:19:06.828Z,5.03
2023-08-02T17:21:35.935Z,7.85
2023-08-02T17:24:03.558Z,6.67
2023-08-02T17:26:30.743Z,3.55
2023-08-02T17:28:57.700Z,5.55
2023-08-02T17:31:24.822Z,5.75
2023-08-02T17:33:52.182Z,6.63
2023-08-02T17:36:19.108Z,6.57
2023-08-02T17:38:45.971Z,5.10
2023-08-02T17:41:12.986Z,5.05
2023-08-02T17:43:39.894Z,3.60
2023-08-02T17:46:06.865Z,6.32
2023-08-02T17:48:33.957Z,7.37
2023-08-02T17:51:01.016Z,7.03
2023-08-02T17:53:30.425Z,5.63
2023-08-02T17:56:02.554Z,3.78
2023-08-02T17:58:30.143Z,8.00
2023-08-02T18:01:23.649Z,5.43
2023-08-02T18:03:52.239Z,6.82
2023-08-02T18:06:21.820Z,3.97
2023-08-02T18:08:50.058Z,9.90
2023-08-02T18:11:23.084Z,6.55
2023-08-02T18:13:50.557Z,4.27
2023-08-02T18:16:17.728Z,5.28
2023-08-02T18:18:44.851Z,5.55
2023-08-02T18:21:12.823Z,8.43
2023-08-02T18:23:40.149Z,7.32
2023-08-02T18:26:12.960Z,12.10
2023-08-02T18:28:39.976Z,5.85
2023-08-02T18:31:07.308Z,5.80
2023-08-02T18:33:34.624Z,7.97
2023-08-02T18:36:12.351Z,9.10
2023-08-02T18:38:40.962Z,4.97
2023-08-02T18:41:20.406Z,7.20
2023-08-02T18:43:48.348Z,9.52
2023-08-02T18:46:16.597Z,7.25
2023-08-02T18:48:47.261Z,4.68
2023-08-02T18:51:17.641Z,3.43
2023-08-02T18:53:49.558Z,2.70
2023-08-02T18:56:17.949Z,4.25
2023-08-02T18:58:46.339Z,5.20
2023-08-02T19:01:13.296Z,5.43
2023-08-02T19:03:41.043Z,5.10
2023-08-02T19:06:08.241Z,3.25
2023-08-02T19:08:36.594Z,3.88
2023-08-02T19:11:04.631Z,3.83
2023-08-02T19:13:33.099Z,4.18
2023-08-02T19:16:00.891Z,6.43
2023-08-02T19:18:28.699Z,5.30
2023-08-02T19:20:55.796Z,5.82
2023-08-02T19:23:22.854Z,7.03
2023-08-02T19:25:50.308Z,7.38
2023-08-02T19:28:24.561Z,4.23
2023-08-02T19:30:52.241Z,4.63
2023-08-02T19:33:19.596Z,4.80
2023-08-02T19:35:49.500Z,5.88
2023-08-02T19:38:21.886Z,4.60
2023-08-02T19:40:57.273Z,5.13
2023-08-02T19:43:25.331Z,4.05
2023-08-02T19:46:00.291Z,3.55
2023-08-02T19:48:27.744Z,5.97
2023-08-02T19:50:57.901Z,3.83
2023-08-02T19:53:25.450Z,4.13
2023-08-02T19:55:52.585Z,4.25
2023-08-02T19:58:20.129Z,3.90
2023-08-02T20:00:54.203Z,4.05
2023-08-02T20:03:28.683Z,6.20
2023-08-02T20:06:00.490Z,4.70
2023-08-02T20:08:31.172Z,4.80
2023-08-02T20:11:00.553Z,7.47
2023-08-02T20:13:31.717Z,4.63
2023-08-02T20:16:00.848Z,4.03
2023-08-02T20:18:27.939Z,4.97
2023-08-02T20:20:57.412Z,3.38
2023-08-02T20:23:26.037Z,3.13
2023-08-02T20:25:54.774Z,2.75
2023-08-02T20:28:22.163Z,4.95
2023-08-02T20:30:52.576Z,4.27
2023-08-02T20:33:22.513Z,3.10
2023-08-02T20:35:49.597Z,3.20
2023-08-02T20:38:18.045Z,3.85
2023-08-02T20:40:45.613Z,5.53
2023-08-02T20:43:14.483Z,3.40
2023-08-02T20:45:46.615Z,3.13
2023-08-02T20:48:15.588Z,5.72
2023-08-02T20:50:48.536Z,4.35
2023-08-02T20:53:17.452Z,4.57
2023-08-02T20:55:45.296Z,4.53
2023-08-02T20:58:23.892Z,4.13
2023-08-02T21:00:57.780Z,6.90
2023-08-02T21:03:25.458Z,3.85
2023-08-02T21:05:52.478Z,11.57
2023-08-02T21:08:19.563Z,5.90
2023-08-02T21:10:46.510Z,7.22
2023-08-02T21:13:13.579Z,5.97
2023-08-02T21:15:46.890Z,4.43
2023-08-02T21:18:14.131Z,5.72
2023-08-02T21:20:42.316Z,3.10
2023-08-02T21:23:19.001Z,3.47
2023-08-02T21:25:51.190Z,3.10
2023-08-02T21:28:23.432Z,6.00
2023-08-02T21:30:52.329Z,6.10
2023-08-02T21:33:20.895Z,3.87
2023-08-02T21:35:53.063Z,3.75
2023-08-02T21:38:25.119Z,6.80
2023-08-02T21:40:57.489Z,3.95
2023-08-02T21:43:26.352Z,5.03
2023-08-02T21:45:57.032Z,2.70
2023-08-02T21:48:24.644Z,5.22
2023-08-02T21:50:51.637Z,3.85
2023-08-02T21:53:23.540Z,4.15
2023-08-02T21:55:53.963Z,4.97
2023-08-02T21:58:36.087Z,5.63
2023-08-02T22:01:04.669Z,3.53
2023-08-02T22:03:31.772Z,5.38
2023-08-02T22:06:03.658Z,3.90
2023-08-02T22:08:39.968Z,6.22
2023-08-02T22:11:09.132Z,4.17
2023-08-02T22:13:38.172Z,4.13
2023-08-02T22:16:09.428Z,5.05
2023-08-02T22:18:36.541Z,4.05
2023-08-02T22:21:04.472Z,2.97
2023-08-02T22:23:32.964Z,4.27
2023-08-02T22:26:00.165Z,2.35
2023-08-02T22:28:27.019Z,4.65
2023-08-02T22:30:54.066Z,5.28
2023-08-02T22:33:20.934Z,3.78
2023-08-02T22:35:48.053Z,3.07
2023-08-02T22:38:15.525Z,2.95
2023-08-02T22:40:42.613Z,4.47
2023-08-02T22:43:09.817Z,4.40
2023-08-02T22:45:36.880Z,5.40
2023-08-02T22:53:06.111Z,5.93
2023-08-02T22:55:33.136Z,6.13
2023-08-02T22:58:00.093Z,4.40
2023-08-02T23:00:28.961Z,6.00
2023-08-02T23:02:56.988Z,4.15
2023-08-02T23:05:23.905Z,7.00
2023-08-02T23:07:51.852Z,4.50
2023-08-02T23:10:27.966Z,4.85
2023-08-02T23:13:00.459Z,3.93
2023-08-02T23:15:27.823Z,3.60
2023-08-02T23:18:20.281Z,2.97
2023-08-02T23:20:49.251Z,5.50
2023-08-02T23:23:31.197Z,5.20
2023-08-02T23:26:11.803Z,5.23
2023-08-02T23:28:53.611Z,5.43
2023-08-02T23:31:26.154Z,5.63
2023-08-02T23:33:54.561Z,4.75
2023-08-02T23:36:21.928Z,6.25
2023-08-02T23:38:49.242Z,4.50
2023-08-02T23:41:16.785Z,6.25
2023-08-02T23:43:43.717Z,5.75
2023-08-02T23:46:10.605Z,6.63
2023-08-02T23:48:37.748Z,8.00
2023-08-02T23:51:04.667Z,7.10
2023-08-02T23:53:31.686Z,8.10
2023-08-02T23:55:58.641Z,7.57
2023-08-02T23:58:25.588Z,8.55
